sensor_id;sensor_type;location;lat;lon;timestamp;temperature;humidity
65472;DHT22;52068;50.710;14.492;2024-01-30T00:00:54;30.54;24.97
65472;DHT22;52068;50.710;14.492;2024-01-30T00:03:19;30.12;25.59
65472;DHT22;52068;50.710;14.492;2024-01-30T00:05:45;29.71;26.07
65472;DHT22;52068;50.710;14.492;2024-01-30T00:08:10;29.31;26.50
65472;DHT22;52068;50.710;14.492;2024-01-30T00:10:35;28.90;27.04
65472;DHT22;52068;50.710;14.492;2024-01-30T00:13:01;28.44;27.61
65472;DHT22;52068;50.710;14.492;2024-01-30T00:15:27;28.02;28.18
65472;DHT22;52068;50.710;14.492;2024-01-30T00:17:53;27.60;28.71
65472;DHT22;52068;50.710;14.492;2024-01-30T00:20:18;27.25;29.25
65472;DHT22;52068;50.710;14.492;2024-01-30T00:22:44;26.96;29.58
65472;DHT22;52068;50.710;14.492;2024-01-30T00:25:09;26.85;29.87
65472;DHT22;52068;50.710;14.492;2024-01-30T00:27:35;26.95;29.90
65472;DHT22;52068;50.710;14.492;2024-01-30T00:30:01;27.25;29.51
65472;DHT22;52068;50.710;14.492;2024-01-30T00:32:26;27.66;29.06
65472;DHT22;52068;50.710;14.492;2024-01-30T00:34:51;28.09;28.44
65472;DHT22;52068;50.710;14.492;2024-01-30T00:37:17;28.55;27.79
65472;DHT22;52068;50.710;14.492;2024-01-30T00:39:42;29.07;27.13
65472;DHT22;52068;50.710;14.492;2024-01-30T00:42:07;29.43;26.70
65472;DHT22;52068;50.710;14.492;2024-01-30T00:44:35;29.71;26.33
65472;DHT22;52068;50.710;14.492;2024-01-30T00:47:03;29.95;26.07
65472;DHT22;52068;50.710;14.492;2024-01-30T00:49:28;30.25;25.60
65472;DHT22;52068;50.710;14.492;2024-01-30T00:51:54;30.35;25.59
65472;DHT22;52068;50.710;14.492;2024-01-30T00:54:19;30.53;25.36
65472;DHT22;52068;50.710;14.492;2024-01-30T00:56:45;30.66;25.09
65472;DHT22;52068;50.710;14.492;2024-01-30T00:59:11;30.66;25.16
65472;DHT22;52068;50.710;14.492;2024-01-30T01:01:36;30.53;25.27
65472;DHT22;52068;50.710;14.492;2024-01-30T01:04:02;30.36;25.52
65472;DHT22;52068;50.710;14.492;2024-01-30T01:06:27;30.10;25.68
65472;DHT22;52068;50.710;14.492;2024-01-30T01:08:53;29.84;26.05
65472;DHT22;52068;50.710;14.492;2024-01-30T01:11:18;29.51;26.38
65472;DHT22;52068;50.710;14.492;2024-01-30T01:13:43;29.23;26.71
65472;DHT22;52068;50.710;14.492;2024-01-30T01:16:09;28.84;27.24
65472;DHT22;52068;50.710;14.492;2024-01-30T01:18:34;28.44;27.76
65472;DHT22;52068;50.710;14.492;2024-01-30T01:20:59;28.05;28.25
65472;DHT22;52068;50.710;14.492;2024-01-30T01:23:25;27.67;28.61
65472;DHT22;52068;50.710;14.492;2024-01-30T01:25:51;27.32;29.19
65472;DHT22;52068;50.710;14.492;2024-01-30T01:28:17;27.05;29.58
65472;DHT22;52068;50.710;14.492;2024-01-30T01:30:42;26.79;29.98
65472;DHT22;52068;50.710;14.492;2024-01-30T01:33:08;26.56;30.37
65472;DHT22;52068;50.710;14.492;2024-01-30T01:35:34;26.43;30.62
65472;DHT22;52068;50.710;14.492;2024-01-30T01:38:00;26.35;30.72
65472;DHT22;52068;50.710;14.492;2024-01-30T01:40:26;26.37;30.94
65472;DHT22;52068;50.710;14.492;2024-01-30T01:42:53;26.48;30.69
65472;DHT22;52068;50.710;14.492;2024-01-30T01:45:19;26.81;30.31
65472;DHT22;52068;50.710;14.492;2024-01-30T01:47:47;27.19;29.90
65472;DHT22;52068;50.710;14.492;2024-01-30T01:50:14;27.60;29.32
65472;DHT22;52068;50.710;14.492;2024-01-30T01:52:43;27.97;28.89
65472;DHT22;52068;50.710;14.492;2024-01-30T01:55:09;28.19;28.62
65472;DHT22;52068;50.710;14.492;2024-01-30T01:57:34;28.41;28.28
65472;DHT22;52068;50.710;14.492;2024-01-30T02:00:01;28.69;27.95
65472;DHT22;52068;50.710;14.492;2024-01-30T02:02:30;28.86;27.69
65472;DHT22;52068;50.710;14.492;2024-01-30T02:04:57;29.07;27.48
65472;DHT22;52068;50.710;14.492;2024-01-30T02:07:22;29.30;27.27
65472;DHT22;52068;50.710;14.492;2024-01-30T02:09:48;29.33;27.03
65472;DHT22;52068;50.710;14.492;2024-01-30T02:12:13;29.43;27.00
65472;DHT22;52068;50.710;14.492;2024-01-30T02:14:45;29.65;26.73
65472;DHT22;52068;50.710;14.492;2024-01-30T02:17:12;29.62;26.78
65472;DHT22;52068;50.710;14.492;2024-01-30T02:19:37;29.68;26.68
65472;DHT22;52068;50.710;14.492;2024-01-30T02:22:03;29.61;26.68
65472;DHT22;52068;50.710;14.492;2024-01-30T02:24:29;29.54;26.81
65472;DHT22;52068;50.710;14.492;2024-01-30T02:26:54;29.50;26.81
65472;DHT22;52068;50.710;14.492;2024-01-30T02:29:20;29.35;26.97
65472;DHT22;52068;50.710;14.492;2024-01-30T02:31:46;29.23;27.16
65472;DHT22;52068;50.710;14.492;2024-01-30T02:34:11;29.11;27.37
65472;DHT22;52068;50.710;14.492;2024-01-30T02:36:37;28.94;27.55
65472;DHT22;52068;50.710;14.492;2024-01-30T02:39:03;28.82;27.85
65472;DHT22;52068;50.710;14.492;2024-01-30T02:41:28;28.59;28.11
65472;DHT22;52068;50.710;14.492;2024-01-30T02:43:54;28.45;28.22
65472;DHT22;52068;50.710;14.492;2024-01-30T02:46:19;28.22;28.47
65472;DHT22;52068;50.710;14.492;2024-01-30T02:48:44;28.05;28.74
65472;DHT22;52068;50.710;14.492;2024-01-30T02:51:10;27.95;28.84
65472;DHT22;52068;50.710;14.492;2024-01-30T02:53:35;27.84;28.93
65472;DHT22;52068;50.710;14.492;2024-01-30T02:56:02;27.70;29.11
65472;DHT22;52068;50.710;14.492;2024-01-30T02:58:28;27.58;29.35
65472;DHT22;52068;50.710;14.492;2024-01-30T03:00:53;27.58;29.35
65472;DHT22;52068;50.710;14.492;2024-01-30T03:03:19;27.63;29.28
65472;DHT22;52068;50.710;14.492;2024-01-30T03:05:44;27.60;29.50
65472;DHT22;52068;50.710;14.492;2024-01-30T03:08:09;27.73;29.30
65472;DHT22;52068;50.710;14.492;2024-01-30T03:10:35;27.88;29.08
65472;DHT22;52068;50.710;14.492;2024-01-30T03:13:00;28.02;28.92
65472;DHT22;52068;50.710;14.492;2024-01-30T03:15:26;28.21;28.69
65472;DHT22;52068;50.710;14.492;2024-01-30T03:17:53;28.39;28.43
65472;DHT22;52068;50.710;14.492;2024-01-30T03:20:18;28.55;28.41
65472;DHT22;52068;50.710;14.492;2024-01-30T03:22:44;28.67;28.16
65472;DHT22;52068;50.710;14.492;2024-01-30T03:25:10;28.82;28.02
65472;DHT22;52068;50.710;14.492;2024-01-30T03:27:35;28.90;27.86
65472;DHT22;52068;50.710;14.492;2024-01-30T03:30:01;29.06;27.64
65472;DHT22;52068;50.710;14.492;2024-01-30T03:32:27;29.04;27.54
65472;DHT22;52068;50.710;14.492;2024-01-30T03:34:53;29.07;27.55
65472;DHT22;52068;50.710;14.492;2024-01-30T03:37:18;29.13;27.43
65472;DHT22;52068;50.710;14.492;2024-01-30T03:39:44;29.17;27.38
65472;DHT22;52068;50.710;14.492;2024-01-30T03:42:09;29.20;27.33
65472;DHT22;52068;50.710;14.492;2024-01-30T03:44:35;29.23;27.22
65472;DHT22;52068;50.710;14.492;2024-01-30T03:47:00;29.39;26.93
65472;DHT22;52068;50.710;14.492;2024-01-30T03:49:26;29.71;26.53
65472;DHT22;52068;50.710;14.492;2024-01-30T03:51:51;30.10;25.98
65472;DHT22;52068;50.710;14.492;2024-01-30T03:54:16;30.47;25.51
65472;DHT22;52068;50.710;14.492;2024-01-30T03:56:42;30.95;24.92
65472;DHT22;52068;50.710;14.492;2024-01-30T03:59:07;31.39;24.41
65472;DHT22;52068;50.710;14.492;2024-01-30T04:01:32;31.76;24.00
65472;DHT22;52068;50.710;14.492;2024-01-30T04:03:59;32.03;23.64
65472;DHT22;52068;50.710;14.492;2024-01-30T04:06:26;32.16;23.45
65472;DHT22;52068;50.710;14.492;2024-01-30T04:08:51;32.21;23.44
65472;DHT22;52068;50.710;14.492;2024-01-30T04:11:18;32.13;23.51
65472;DHT22;52068;50.710;14.492;2024-01-30T04:13:44;31.92;23.73
65472;DHT22;52068;50.710;14.492;2024-01-30T04:16:19;31.61;24.04
65472;DHT22;52068;50.710;14.492;2024-01-30T04:18:46;31.25;24.42
65472;DHT22;52068;50.710;14.492;2024-01-30T04:21:11;30.86;24.87
65472;DHT22;52068;50.710;14.492;2024-01-30T04:23:36;30.40;25.25
65472;DHT22;52068;50.710;14.492;2024-01-30T04:26:02;29.90;25.93
65472;DHT22;52068;50.710;14.492;2024-01-30T04:28:28;29.44;26.51
65472;DHT22;52068;50.710;14.492;2024-01-30T04:30:54;28.97;27.00
65472;DHT22;52068;50.710;14.492;2024-01-30T04:33:19;28.51;27.53
65472;DHT22;52068;50.710;14.492;2024-01-30T04:35:45;28.02;28.25
65472;DHT22;52068;50.710;14.492;2024-01-30T04:38:10;27.66;28.71
65472;DHT22;52068;50.710;14.492;2024-01-30T04:40:35;27.29;29.22
65472;DHT22;52068;50.710;14.492;2024-01-30T04:43:01;27.05;29.65
65472;DHT22;52068;50.710;14.492;2024-01-30T04:45:26;27.15;29.62
65472;DHT22;52068;50.710;14.492;2024-01-30T04:47:52;27.50;29.11
65472;DHT22;52068;50.710;14.492;2024-01-30T04:50:17;27.94;28.57
65472;DHT22;52068;50.710;14.492;2024-01-30T04:52:43;28.44;27.87
65472;DHT22;52068;50.710;14.492;2024-01-30T04:55:09;28.94;27.23
65472;DHT22;52068;50.710;14.492;2024-01-30T04:57:34;29.28;26.78
65472;DHT22;52068;50.710;14.492;2024-01-30T04:59:59;29.71;26.27
65472;DHT22;52068;50.710;14.492;2024-01-30T05:02:25;30.12;25.81
65472;DHT22;52068;50.710;14.492;2024-01-30T05:04:50;30.35;25.56
65472;DHT22;52068;50.710;14.492;2024-01-30T05:07:15;30.64;25.15
65472;DHT22;52068;50.710;14.492;2024-01-30T05:09:41;30.90;24.90
65472;DHT22;52068;50.710;14.492;2024-01-30T05:12:07;31.18;24.55
65472;DHT22;52068;50.710;14.492;2024-01-30T05:14:32;31.15;24.55
65472;DHT22;52068;50.710;14.492;2024-01-30T05:16:58;31.26;24.37
65472;DHT22;52068;50.710;14.492;2024-01-30T05:19:23;31.21;24.43
65472;DHT22;52068;50.710;14.492;2024-01-30T05:21:49;31.01;24.74
65472;DHT22;52068;50.710;14.492;2024-01-30T05:24:14;30.68;25.04
65472;DHT22;52068;50.710;14.492;2024-01-30T05:26:40;30.33;25.44
65472;DHT22;52068;50.710;14.492;2024-01-30T05:29:06;29.93;25.87
65472;DHT22;52068;50.710;14.492;2024-01-30T05:31:31;29.57;26.24
65472;DHT22;52068;50.710;14.492;2024-01-30T05:33:57;29.08;26.78
65472;DHT22;52068;50.710;14.492;2024-01-30T05:36:22;28.60;27.34
65472;DHT22;52068;50.710;14.492;2024-01-30T05:38:48;28.21;27.90
65472;DHT22;52068;50.710;14.492;2024-01-30T05:41:13;27.76;28.39
65472;DHT22;52068;50.710;14.492;2024-01-30T05:43:38;27.36;28.98
65472;DHT22;52068;50.710;14.492;2024-01-30T05:46:04;27.03;29.41
65472;DHT22;52068;50.710;14.492;2024-01-30T05:48:29;26.72;29.79
65472;DHT22;52068;50.710;14.492;2024-01-30T05:50:55;26.47;30.18
65472;DHT22;52068;50.710;14.492;2024-01-30T05:53:21;26.33;30.40
65472;DHT22;52068;50.710;14.492;2024-01-30T05:55:47;26.38;30.51
65472;DHT22;52068;50.710;14.492;2024-01-30T05:58:12;26.74;30.11
65472;DHT22;52068;50.710;14.492;2024-01-30T06:00:37;27.25;29.42
65472;DHT22;52068;50.710;14.492;2024-01-30T06:03:04;27.67;28.85
65472;DHT22;52068;50.710;14.492;2024-01-30T06:05:29;28.04;28.25
65472;DHT22;52068;50.710;14.492;2024-01-30T06:07:55;28.41;27.77
65472;DHT22;52068;50.710;14.492;2024-01-30T06:10:20;28.79;27.23
65472;DHT22;52068;50.710;14.492;2024-01-30T06:12:46;29.11;26.81
65472;DHT22;52068;50.710;14.492;2024-01-30T06:15:11;29.30;26.61
65472;DHT22;52068;50.710;14.492;2024-01-30T06:17:38;29.47;26.33
65472;DHT22;52068;50.710;14.492;2024-01-30T06:20:03;29.68;26.08
65472;DHT22;52068;50.710;14.492;2024-01-30T06:22:29;29.95;25.67
65472;DHT22;52068;50.710;14.492;2024-01-30T06:24:54;29.98;25.66
65472;DHT22;52068;50.710;14.492;2024-01-30T06:27:20;29.96;25.65
65472;DHT22;52068;50.710;14.492;2024-01-30T06:29:45;29.98;25.63
65472;DHT22;52068;50.710;14.492;2024-01-30T06:32:11;29.96;25.67
65472;DHT22;52068;50.710;14.492;2024-01-30T06:34:36;29.89;25.73
65472;DHT22;52068;50.710;14.492;2024-01-30T06:37:03;29.72;25.89
65472;DHT22;52068;50.710;14.492;2024-01-30T06:39:29;29.53;26.06
65472;DHT22;52068;50.710;14.492;2024-01-30T06:41:54;29.28;26.35
65472;DHT22;52068;50.710;14.492;2024-01-30T06:44:19;29.13;26.61
65472;DHT22;52068;50.710;14.492;2024-01-30T06:46:45;28.87;26.81
65472;DHT22;52068;50.710;14.492;2024-01-30T06:49:10;28.57;27.25
65472;DHT22;52068;50.710;14.492;2024-01-30T06:51:36;28.36;27.51
65472;DHT22;52068;50.710;14.492;2024-01-30T06:54:01;28.04;28.21
65472;DHT22;52068;50.710;14.492;2024-01-30T06:56:27;27.77;28.43
65472;DHT22;52068;50.710;14.492;2024-01-30T06:58:53;27.51;28.78
65472;DHT22;52068;50.710;14.492;2024-01-30T07:01:18;27.30;28.82
65472;DHT22;52068;50.710;14.492;2024-01-30T07:03:44;27.13;29.21
65472;DHT22;52068;50.710;14.492;2024-01-30T07:06:09;27.00;29.26
65472;DHT22;52068;50.710;14.492;2024-01-30T07:08:36;26.84;29.46
65472;DHT22;52068;50.710;14.492;2024-01-30T07:11:02;26.76;29.53
65472;DHT22;52068;50.710;14.492;2024-01-30T07:13:28;26.65;29.60
65472;DHT22;52068;50.710;14.492;2024-01-30T07:15:54;26.69;29.83
65472;DHT22;52068;50.710;14.492;2024-01-30T07:18:19;26.94;29.35
65472;DHT22;52068;50.710;14.492;2024-01-30T07:20:45;27.07;29.17
65472;DHT22;52068;50.710;14.492;2024-01-30T07:23:14;27.36;28.78
65472;DHT22;52068;50.710;14.492;2024-01-30T07:25:42;27.70;28.28
65472;DHT22;52068;50.710;14.492;2024-01-30T07:28:08;28.00;27.74
65472;DHT22;52068;50.710;14.492;2024-01-30T07:30:43;28.18;27.58
65472;DHT22;52068;50.710;14.492;2024-01-30T07:33:08;28.38;27.31
65472;DHT22;52068;50.710;14.492;2024-01-30T07:35:34;28.80;26.75
65472;DHT22;52068;50.710;14.492;2024-01-30T07:38:00;29.13;26.49
65472;DHT22;52068;50.710;14.492;2024-01-30T07:40:25;29.28;26.22
65472;DHT22;52068;50.710;14.492;2024-01-30T07:42:53;29.62;25.85
65472;DHT22;52068;50.710;14.492;2024-01-30T07:45:18;29.76;25.60
65472;DHT22;52068;50.710;14.492;2024-01-30T07:47:50;30.06;25.30
65472;DHT22;52068;50.710;14.492;2024-01-30T07:50:16;30.20;25.10
65472;DHT22;52068;50.710;14.492;2024-01-30T07:52:42;30.23;25.09
65472;DHT22;52068;50.710;14.492;2024-01-30T07:55:08;30.29;25.05
65472;DHT22;52068;50.710;14.492;2024-01-30T07:57:34;30.26;25.21
65472;DHT22;52068;50.710;14.492;2024-01-30T08:00:00;30.26;25.20
65472;DHT22;52068;50.710;14.492;2024-01-30T08:02:25;30.20;25.27
65472;DHT22;52068;50.710;14.492;2024-01-30T08:04:51;30.16;25.39
65472;DHT22;52068;50.710;14.492;2024-01-30T08:07:16;30.01;25.57
65472;DHT22;52068;50.710;14.492;2024-01-30T08:09:43;29.90;25.67
65472;DHT22;52068;50.710;14.492;2024-01-30T08:12:08;29.85;25.88
65472;DHT22;52068;50.710;14.492;2024-01-30T08:14:34;29.85;25.86
65472;DHT22;52068;50.710;14.492;2024-01-30T08:16:59;29.89;25.78
65472;DHT22;52068;50.710;14.492;2024-01-30T08:19:24;30.08;25.56
65472;DHT22;52068;50.710;14.492;2024-01-30T08:21:50;30.39;25.21
65472;DHT22;52068;50.710;14.492;2024-01-30T08:24:15;30.48;25.09
65472;DHT22;52068;50.710;14.492;2024-01-30T08:26:41;30.71;24.83
65472;DHT22;52068;50.710;14.492;2024-01-30T08:29:06;30.92;24.61
65472;DHT22;52068;50.710;14.492;2024-01-30T08:31:31;31.11;24.47
65472;DHT22;52068;50.710;14.492;2024-01-30T08:33:57;31.24;24.29
65472;DHT22;52068;50.710;14.492;2024-01-30T08:36:22;31.32;24.16
65472;DHT22;52068;50.710;14.492;2024-01-30T08:38:48;31.36;24.21
65472;DHT22;52068;50.710;14.492;2024-01-30T08:41:13;31.35;24.16
65472;DHT22;52068;50.710;14.492;2024-01-30T08:43:39;31.18;24.28
65472;DHT22;52068;50.710;14.492;2024-01-30T08:46:04;31.05;24.59
65472;DHT22;52068;50.710;14.492;2024-01-30T08:48:29;30.74;24.97
65472;DHT22;52068;50.710;14.492;2024-01-30T08:50:55;30.50;25.11
65472;DHT22;52068;50.710;14.492;2024-01-30T08:53:20;30.20;25.43
65472;DHT22;52068;50.710;14.492;2024-01-30T08:55:46;29.84;25.85
65472;DHT22;52068;50.710;14.492;2024-01-30T08:58:11;29.44;26.28
65472;DHT22;52068;50.710;14.492;2024-01-30T09:00:37;29.08;26.73
65472;DHT22;52068;50.710;14.492;2024-01-30T09:03:03;28.73;27.17
65472;DHT22;52068;50.710;14.492;2024-01-30T09:05:29;28.31;27.65
65472;DHT22;52068;50.710;14.492;2024-01-30T09:07:55;28.00;28.08
65472;DHT22;52068;50.710;14.492;2024-01-30T09:10:20;27.68;28.49
65472;DHT22;52068;50.710;14.492;2024-01-30T09:12:46;27.49;28.78
65472;DHT22;52068;50.710;14.492;2024-01-30T09:15:11;27.39;28.91
65472;DHT22;52068;50.710;14.492;2024-01-30T09:17:37;27.49;28.81
65472;DHT22;52068;50.710;14.492;2024-01-30T09:20:02;27.70;28.49
65472;DHT22;52068;50.710;14.492;2024-01-30T09:22:28;28.11;28.00
65472;DHT22;52068;50.710;14.492;2024-01-30T09:24:53;28.53;27.35
65472;DHT22;52068;50.710;14.492;2024-01-30T09:27:18;29.02;26.80
65472;DHT22;52068;50.710;14.492;2024-01-30T09:29:44;29.43;26.16
65472;DHT22;52068;50.710;14.492;2024-01-30T09:32:09;29.98;25.58
65472;DHT22;52068;50.710;14.492;2024-01-30T09:34:35;30.39;25.04
65472;DHT22;52068;50.710;14.492;2024-01-30T09:37:00;30.81;24.56
65472;DHT22;52068;50.710;14.492;2024-01-30T09:39:26;31.07;24.30
65472;DHT22;52068;50.710;14.492;2024-01-30T09:42:02;31.43;23.83
65472;DHT22;52068;50.710;14.492;2024-01-30T09:44:30;31.63;23.63
65472;DHT22;52068;50.710;14.492;2024-01-30T09:46:56;31.65;23.60
65472;DHT22;52068;50.710;14.492;2024-01-30T09:49:24;31.59;23.62
65472;DHT22;52068;50.710;14.492;2024-01-30T09:51:50;31.42;23.85
65472;DHT22;52068;50.710;14.492;2024-01-30T09:54:16;31.12;24.07
65472;DHT22;52068;50.710;14.492;2024-01-30T09:56:42;30.80;24.42
65472;DHT22;52068;50.710;14.492;2024-01-30T09:59:07;30.46;24.80
65472;DHT22;52068;50.710;14.492;2024-01-30T10:01:34;30.05;25.25
65472;DHT22;52068;50.710;14.492;2024-01-30T10:04:00;29.66;25.70
65472;DHT22;52068;50.710;14.492;2024-01-30T10:06:26;29.21;26.22
65472;DHT22;52068;50.710;14.492;2024-01-30T10:08:52;28.80;26.68
65472;DHT22;52068;50.710;14.492;2024-01-30T10:11:18;28.46;27.21
65472;DHT22;52068;50.710;14.492;2024-01-30T10:13:43;28.01;27.69
65472;DHT22;52068;50.710;14.492;2024-01-30T10:16:09;27.64;28.27
65472;DHT22;52068;50.710;14.492;2024-01-30T10:18:34;27.39;28.59
65472;DHT22;52068;50.710;14.492;2024-01-30T10:20:59;27.16;28.86
65472;DHT22;52068;50.710;14.492;2024-01-30T10:23:25;27.05;29.09
65472;DHT22;52068;50.710;14.492;2024-01-30T10:25:51;27.07;29.07
65472;DHT22;52068;50.710;14.492;2024-01-30T10:28:17;27.30;28.73
65472;DHT22;52068;50.710;14.492;2024-01-30T10:30:42;27.64;28.30
65472;DHT22;52068;50.710;14.492;2024-01-30T10:33:08;28.05;27.70
65472;DHT22;52068;50.710;14.492;2024-01-30T10:35:33;28.53;27.14
65472;DHT22;52068;50.710;14.492;2024-01-30T10:37:59;28.99;26.47
65472;DHT22;52068;50.710;14.492;2024-01-30T10:40:28;29.39;26.01
65472;DHT22;52068;50.710;14.492;2024-01-30T10:42:55;29.82;25.45
65472;DHT22;52068;50.710;14.492;2024-01-30T10:45:22;30.09;25.36
65472;DHT22;52068;50.710;14.492;2024-01-30T10:47:52;30.36;25.02
65472;DHT22;52068;50.710;14.492;2024-01-30T10:50:18;30.50;24.85
65472;DHT22;52068;50.710;14.492;2024-01-30T10:52:44;30.61;24.68
65472;DHT22;52068;50.710;14.492;2024-01-30T10:55:11;30.57;25.02
65472;DHT22;52068;50.710;14.492;2024-01-30T10:57:37;30.29;22.63
65472;DHT22;52068;50.710;14.492;2024-01-30T11:00:06;29.82;21.36
65472;DHT22;52068;50.710;14.492;2024-01-30T11:02:35;28.99;20.66
65472;DHT22;52068;50.710;14.492;2024-01-30T11:05:01;28.67;21.32
65472;DHT22;52068;50.710;14.492;2024-01-30T11:07:28;28.73;22.26
65472;DHT22;52068;50.710;14.492;2024-01-30T11:12:30;30.50;21.67
65472;DHT22;52068;50.710;14.492;2024-01-30T11:15:08;31.67;20.81
65472;DHT22;52068;50.710;14.492;2024-01-30T11:22:47;34.35;18.38
65472;DHT22;52068;50.710;14.492;2024-01-30T11:25:16;34.86;18.09
65472;DHT22;52068;50.710;14.492;2024-01-30T11:27:45;35.07;18.15
65472;DHT22;52068;50.710;14.492;2024-01-30T11:30:26;35.09;18.10
65472;DHT22;52068;50.710;14.492;2024-01-30T11:33:05;34.91;18.26
65472;DHT22;52068;50.710;14.492;2024-01-30T11:35:32;34.43;18.69
65472;DHT22;52068;50.710;14.492;2024-01-30T11:37:59;33.96;19.10
65472;DHT22;52068;50.710;14.492;2024-01-30T11:40:27;33.47;19.58
65472;DHT22;52068;50.710;14.492;2024-01-30T11:42:54;32.92;19.99
65472;DHT22;52068;50.710;14.492;2024-01-30T11:45:20;32.43;20.55
65472;DHT22;52068;50.710;14.492;2024-01-30T11:47:46;31.87;21.07
65472;DHT22;52068;50.710;14.492;2024-01-30T11:50:11;31.43;21.55
65472;DHT22;52068;50.710;14.492;2024-01-30T11:52:37;30.95;21.96
65472;DHT22;52068;50.710;14.492;2024-01-30T11:55:03;30.47;22.56
65472;DHT22;52068;50.710;14.492;2024-01-30T11:57:29;29.96;23.12
65472;DHT22;52068;50.710;14.492;2024-01-30T11:59:54;29.53;23.58
65472;DHT22;52068;50.710;14.492;2024-01-30T12:02:20;29.03;24.20
65472;DHT22;52068;50.710;14.492;2024-01-30T12:04:45;28.59;24.77
65472;DHT22;52068;50.710;14.492;2024-01-30T12:07:11;28.19;25.11
65472;DHT22;52068;50.710;14.492;2024-01-30T12:09:37;27.81;25.27
65472;DHT22;52068;50.710;14.492;2024-01-30T12:12:03;27.46;25.52
65472;DHT22;52068;50.710;14.492;2024-01-30T12:14:29;27.16;26.02
65472;DHT22;52068;50.710;14.492;2024-01-30T12:16:54;27.09;26.06
65472;DHT22;52068;50.710;14.492;2024-01-30T12:19:23;27.50;25.87
65472;DHT22;52068;50.710;14.492;2024-01-30T12:21:58;28.29;25.15
65472;DHT22;52068;50.710;14.492;2024-01-30T12:24:27;29.23;24.15
65472;DHT22;52068;50.710;14.492;2024-01-30T12:26:57;30.06;23.14
65472;DHT22;52068;50.710;14.492;2024-01-30T12:29:22;30.88;22.32
65472;DHT22;52068;50.710;14.492;2024-01-30T12:31:48;31.53;21.76
65472;DHT22;52068;50.710;14.492;2024-01-30T12:34:14;31.99;21.30
65472;DHT22;52068;50.710;14.492;2024-01-30T12:36:42;32.36;20.93
65472;DHT22;52068;50.710;14.492;2024-01-30T12:39:11;32.55;20.74
65472;DHT22;52068;50.710;14.492;2024-01-30T12:41:38;32.53;20.77
65472;DHT22;52068;50.710;14.492;2024-01-30T12:44:03;32.33;20.96
65472;DHT22;52068;50.710;14.492;2024-01-30T12:46:29;32.17;20.98
65472;DHT22;52068;50.710;14.492;2024-01-30T12:48:54;31.93;21.30
65472;DHT22;52068;50.710;14.492;2024-01-30T12:51:19;31.62;21.50
65472;DHT22;52068;50.710;14.492;2024-01-30T12:53:45;31.19;22.00
65472;DHT22;52068;50.710;14.492;2024-01-30T12:56:13;30.83;22.50
65472;DHT22;52068;50.710;14.492;2024-01-30T12:58:38;30.39;22.98
65472;DHT22;52068;50.710;14.492;2024-01-30T13:01:03;29.99;23.40
65472;DHT22;52068;50.710;14.492;2024-01-30T13:03:29;29.72;23.47
65472;DHT22;52068;50.710;14.492;2024-01-30T13:05:55;29.34;23.88
65472;DHT22;52068;50.710;14.492;2024-01-30T13:08:21;28.96;24.44
65472;DHT22;52068;50.710;14.492;2024-01-30T13:10:46;28.55;24.84
65472;DHT22;52068;50.710;14.492;2024-01-30T13:13:12;28.09;25.61
65472;DHT22;52068;50.710;14.492;2024-01-30T13:15:37;27.78;26.09
65472;DHT22;52068;50.710;14.492;2024-01-30T13:18:03;27.54;26.61
65472;DHT22;52068;50.710;14.492;2024-01-30T13:20:30;27.63;26.66
65472;DHT22;52068;50.710;14.492;2024-01-30T13:22:55;27.85;26.45
65472;DHT22;52068;50.710;14.492;2024-01-30T13:25:21;28.36;26.11
65472;DHT22;52068;50.710;14.492;2024-01-30T13:27:46;29.00;25.42
65472;DHT22;52068;50.710;14.492;2024-01-30T13:30:12;29.62;24.65
65472;DHT22;52068;50.710;14.492;2024-01-30T13:32:37;30.23;23.97
65472;DHT22;52068;50.710;14.492;2024-01-30T13:35:03;30.76;23.45
65472;DHT22;52068;50.710;14.492;2024-01-30T13:37:29;31.11;23.05
65472;DHT22;52068;50.710;14.492;2024-01-30T13:39:55;31.29;22.84
65472;DHT22;52068;50.710;14.492;2024-01-30T13:42:21;31.38;22.78
65472;DHT22;52068;50.710;14.492;2024-01-30T13:44:46;31.28;22.85
65472;DHT22;52068;50.710;14.492;2024-01-30T13:47:12;31.07;23.08
65472;DHT22;52068;50.710;14.492;2024-01-30T13:49:37;30.76;23.41
65472;DHT22;52068;50.710;14.492;2024-01-30T13:52:03;30.37;23.90
65472;DHT22;52068;50.710;14.492;2024-01-30T13:54:29;29.99;24.34
65472;DHT22;52068;50.710;14.492;2024-01-30T13:56:55;29.55;24.83
65472;DHT22;52068;50.710;14.492;2024-01-30T13:59:21;29.18;25.30
65472;DHT22;52068;50.710;14.492;2024-01-30T14:01:50;28.80;25.70
65472;DHT22;52068;50.710;14.492;2024-01-30T14:04:15;28.41;26.15
65472;DHT22;52068;50.710;14.492;2024-01-30T14:06:40;28.01;26.66
65472;DHT22;52068;50.710;14.492;2024-01-30T14:09:06;27.64;27.09
65472;DHT22;52068;50.710;14.492;2024-01-30T14:11:31;27.37;27.55
65472;DHT22;52068;50.710;14.492;2024-01-30T14:13:57;27.36;27.76
65472;DHT22;52068;50.710;14.492;2024-01-30T14:16:23;27.50;27.62
65472;DHT22;52068;50.710;14.492;2024-01-30T14:18:49;27.98;27.09
65472;DHT22;52068;50.710;14.492;2024-01-30T14:21:15;28.56;26.42
65472;DHT22;52068;50.710;14.492;2024-01-30T14:23:40;29.21;25.59
65472;DHT22;52068;50.710;14.492;2024-01-30T14:26:06;29.84;24.97
65472;DHT22;52068;50.710;14.492;2024-01-30T14:28:31;30.27;24.40
65472;DHT22;52068;50.710;14.492;2024-01-30T14:30:57;30.64;23.96
65472;DHT22;52068;50.710;14.492;2024-01-30T14:33:22;30.83;23.74
65472;DHT22;52068;50.710;14.492;2024-01-30T14:35:48;30.94;23.61
65472;DHT22;52068;50.710;14.492;2024-01-30T14:38:13;30.84;23.79
65472;DHT22;52068;50.710;14.492;2024-01-30T14:40:39;30.57;24.05
65472;DHT22;52068;50.710;14.492;2024-01-30T14:43:04;30.26;24.54
65472;DHT22;52068;50.710;14.492;2024-01-30T14:45:30;29.89;24.96
65472;DHT22;52068;50.710;14.492;2024-01-30T14:47:57;29.59;24.82
65472;DHT22;52068;50.710;14.492;2024-01-30T14:50:23;29.23;25.22
65472;DHT22;52068;50.710;14.492;2024-01-30T14:52:48;28.82;25.70
65472;DHT22;52068;50.710;14.492;2024-01-30T14:55:14;28.42;26.18
65472;DHT22;52068;50.710;14.492;2024-01-30T14:57:39;28.00;26.69
65472;DHT22;52068;50.710;14.492;2024-01-30T15:00:07;27.64;27.25
65472;DHT22;52068;50.710;14.492;2024-01-30T15:02:34;27.32;27.88
65472;DHT22;52068;50.710;14.492;2024-01-30T15:05:00;27.20;28.07
65472;DHT22;52068;50.710;14.492;2024-01-30T15:07:26;27.43;27.70
65472;DHT22;52068;50.710;14.492;2024-01-30T15:09:52;28.09;26.79
65472;DHT22;52068;50.710;14.492;2024-01-30T15:12:18;28.93;25.81
65472;DHT22;52068;50.710;14.492;2024-01-30T15:14:43;29.76;24.84